Time;durP1;ratioP1;P1;durP2;ratioP2;P2;SDS_P1;SDS_P2;PMS_P1;PMS_P2;Temp;Humidity;BMP_temperature;BMP_pressure;BME280_temperature;BME280_humidity;BME280_pressure;Samples;Min_cycle;Max_cycle;Signal;HPM_P1;HPM_P2
2022/10/11 00:00:29;;;;;;;8.60;3.60;;;8.80;99.90;;;;;;5030859;28;20475;-76
2022/10/11 00:02:57;;;;;;;3.80;2.63;;;8.80;99.90;;;;;;5028670;28;20045;-77
2022/10/11 00:05:25;;;;;;;8.05;3.20;;;8.80;99.90;;;;;;5030574;28;20045;-77
2022/10/11 00:07:53;;;;;;;3.75;2.38;;;8.80;99.90;;;;;;5029729;28;20160;-76
2022/10/11 00:10:21;;;;;;;4.20;2.45;;;8.90;99.90;;;;;;5030540;28;20049;-76
2022/10/11 00:12:51;;;;;;;5.32;2.78;;;8.90;99.90;;;;;;5005571;28;20046;-76
2022/10/11 00:15:21;;;;;;;4.57;3.08;;;8.90;99.90;;;;;;5030256;28;20111;-76
2022/10/11 00:17:49;;;;;;;5.13;2.75;;;9.00;99.90;;;;;;4995400;28;20493;-76
2022/10/11 00:20:17;;;;;;;12.65;3.08;;;9.00;99.90;;;;;;5030655;28;20056;-76
2022/10/11 00:22:45;;;;;;;4.25;2.92;;;9.10;99.90;;;;;;5027010;28;20045;-76
2022/10/11 00:25:13;;;;;;;7.13;3.13;;;9.00;99.90;;;;;;5029843;28;20140;-76
2022/10/11 00:27:41;;;;;;;7.82;2.70;;;9.00;99.90;;;;;;4992618;28;20049;-77
2022/10/11 00:30:12;;;;;;;3.00;2.80;;;8.90;99.90;;;;;;4996292;28;20154;-78
2022/10/11 00:32:40;;;;;;;4.63;3.10;;;9.00;99.90;;;;;;5030211;28;20049;-77
2022/10/11 00:35:08;;;;;;;6.28;2.78;;;9.00;99.90;;;;;;5028573;28;20045;-77
2022/10/11 00:37:38;;;;;;;2.97;2.33;;;9.00;99.90;;;;;;5012852;28;20461;-77
2022/10/11 00:40:10;;;;;;;7.63;3.00;;;9.00;99.90;;;;;;5027584;28;20631;-77
2022/10/11 00:42:41;;;;;;;3.88;3.17;;;9.00;99.90;;;;;;5012788;28;20079;-78
2022/10/11 00:45:59;;;;;;;3.25;2.25;;;9.00;99.90;;;;;;5024320;28;20536;-78
2022/10/11 00:48:33;;;;;;;7.10;2.75;;;9.10;99.90;;;;;;5009553;28;20061;-77
2022/10/11 00:51:06;;;;;;;5.43;2.95;;;9.10;99.90;;;;;;5029318;28;20464;-78
2022/10/11 00:53:34;;;;;;;5.28;2.58;;;9.10;99.90;;;;;;4998232;28;20053;-77
2022/10/11 00:56:12;;;;;;;5.72;2.50;;;9.10;99.90;;;;;;5015749;28;20073;-77
2022/10/11 00:58:41;;;;;;;4.43;2.85;;;9.10;99.90;;;;;;5030746;28;20053;-77
2022/10/11 01:01:10;;;;;;;6.32;2.90;;;9.10;99.90;;;;;;5033997;28;20049;-77
2022/10/11 01:03:39;;;;;;;7.47;3.60;;;9.20;99.90;;;;;;5031756;28;20133;-77
2022/10/11 01:06:09;;;;;;;6.20;3.42;;;9.20;99.90;;;;;;5015098;28;20049;-77
2022/10/11 01:08:37;;;;;;;5.80;3.28;;;9.10;99.90;;;;;;4997354;28;20406;-77
2022/10/11 01:11:04;;;;;;;8.10;3.72;;;9.10;99.90;;;;;;5015697;28;20045;-78
2022/10/11 01:13:48;;;;;;;4.47;3.17;;;9.00;99.90;;;;;;5014418;28;20516;-77
2022/10/11 01:16:28;;;;;;;3.70;3.13;;;9.10;99.90;;;;;;5012436;28;20053;-77
2022/10/11 01:19:07;;;;;;;5.57;3.25;;;9.10;99.90;;;;;;5015969;28;20060;-77
2022/10/11 01:21:44;;;;;;;4.25;2.90;;;9.10;99.90;;;;;;5014486;28;20053;-77
2022/10/11 01:24:57;;;;;;;7.05;3.03;;;9.10;99.90;;;;;;5015629;28;20482;-77
2022/10/11 01:27:44;;;;;;;3.58;2.95;;;9.10;99.90;;;;;;5010889;28;20658;-76
2022/10/11 01:30:21;;;;;;;5.35;3.20;;;9.10;99.90;;;;;;4978171;28;20563;-76
2022/10/11 01:32:59;;;;;;;8.07;3.42;;;9.10;99.90;;;;;;4995665;28;20128;-76
2022/10/11 01:35:31;;;;;;;5.30;3.00;;;9.10;99.90;;;;;;5009521;28;20581;-75
2022/10/11 01:38:07;;;;;;;6.13;2.53;;;9.10;99.90;;;;;;5012607;28;20065;-76
2022/10/11 01:40:39;;;;;;;4.30;2.70;;;9.10;99.90;;;;;;5031471;28;20045;-77
2022/10/11 01:43:20;;;;;;;5.28;3.13;;;9.10;99.90;;;;;;5101482;27;20405;-76
2022/10/11 01:46:02;;;;;;;3.70;2.70;;;9.00;99.90;;;;;;5099615;27;20891;-77
2022/10/11 01:48:50;;;;;;;6.22;3.13;;;9.00;99.90;;;;;;5104978;27;1267702;-76
2022/10/11 01:51:33;;;;;;;3.95;3.20;;;8.90;99.90;;;;;;5129263;27;20849;-77
2022/10/11 01:54:35;;;;;;;6.13;3.33;;;8.90;99.90;;;;;;5081097;27;20954;-77
2022/10/11 01:57:41;;;;;;;8.55;3.42;;;8.80;99.90;;;;;;5094128;27;1254983;-77
2022/10/11 02:00:24;;;;;;;3.17;2.78;;;8.80;99.90;;;;;;5108523;27;20396;-77
2022/10/11 02:03:19;;;;;;;5.15;2.90;;;8.80;99.90;;;;;;5121043;27;20489;-76
2022/10/11 02:06:05;;;;;;;6.07;3.22;;;8.80;99.90;;;;;;5108675;27;20474;-77
2022/10/11 02:08:55;;;;;;;5.50;3.00;;;8.90;99.90;;;;;;5087385;28;20452;-77
2022/10/11 02:11:36;;;;;;;2.90;2.70;;;8.80;99.90;;;;;;5072511;28;20406;-77
2022/10/11 02:14:31;;;;;;;4.18;2.83;;;8.90;99.90;;;;;;5076003;28;20381;-78
2022/10/11 02:17:14;;;;;;;6.25;2.83;;;8.90;99.90;;;;;;5143799;27;20860;-77
2022/10/11 02:19:56;;;;;;;6.57;2.80;;;8.90;99.90;;;;;;5119478;27;20400;-77
2022/10/11 02:22:39;;;;;;;3.30;2.20;;;8.90;99.90;;;;;;5080225;27;1517663;-77
2022/10/11 02:25:25;;;;;;;4.47;2.83;;;8.90;99.90;;;;;;5071478;27;20797;-77
2022/10/11 02:28:11;;;;;;;4.03;2.80;;;8.90;99.90;;;;;;5104991;27;20416;-77
2022/10/11 02:30:55;;;;;;;6.70;2.70;;;8.80;99.90;;;;;;5127230;27;20123;-77
2022/10/11 02:33:40;;;;;;;4.35;2.50;;;8.80;99.90;;;;;;5087938;27;20932;-78
2022/10/11 02:36:26;;;;;;;5.95;2.83;;;8.80;99.90;;;;;;5080853;27;20409;-77
2022/10/11 02:39:13;;;;;;;5.57;3.03;;;8.80;99.90;;;;;;5130419;27;20507;-77
2022/10/11 02:41:57;;;;;;;6.32;3.35;;;8.80;99.90;;;;;;5128519;27;20387;-77
2022/10/11 02:44:43;;;;;;;5.47;2.60;;;8.80;99.90;;;;;;5083275;27;20391;-77
2022/10/11 02:47:23;;;;;;;5.63;3.10;;;8.90;99.90;;;;;;5086472;27;20401;-76
2022/10/11 02:50:04;;;;;;;7.28;2.38;;;8.90;99.90;;;;;;5082774;28;20406;-76
2022/10/11 02:52:44;;;;;;;6.45;3.47;;;8.90;99.90;;;;;;5088645;27;20381;-77
2022/10/11 02:55:24;;;;;;;4.20;3.33;;;8.90;99.90;;;;;;5144525;27;20480;-76
2022/10/11 02:58:04;;;;;;;4.95;3.58;;;8.80;99.90;;;;;;5074595;27;20768;-77
2022/10/11 03:00:43;;;;;;;3.80;3.25;;;8.80;99.90;;;;;;5150436;27;20381;-76
2022/10/11 03:03:23;;;;;;;4.60;3.40;;;8.70;99.90;;;;;;5087296;27;20408;-77
2022/10/11 03:06:04;;;;;;;4.57;4.10;;;8.80;99.90;;;;;;5091062;27;20480;-77
2022/10/11 03:08:56;;;;;;;4.50;3.58;;;8.70;99.90;;;;;;5085325;28;20376;-76
2022/10/11 03:11:36;;;;;;;6.43;4.03;;;8.70;99.90;;;;;;5152000;27;20388;-77
2022/10/11 03:14:16;;;;;;;6.90;3.63;;;8.60;99.90;;;;;;5117817;27;20521;-77
2022/10/11 03:16:55;;;;;;;8.18;4.30;;;8.60;99.90;;;;;;5100742;27;20407;-77
2022/10/11 03:19:35;;;;;;;8.45;4.05;;;8.60;99.90;;;;;;5091441;27;20464;-77
2022/10/11 03:22:15;;;;;;;3.60;3.25;;;8.60;99.90;;;;;;5106913;27;20411;-77
2022/10/11 03:24:55;;;;;;;6.38;2.85;;;8.60;99.90;;;;;;5088551;27;20386;-77
2022/10/11 03:27:38;;;;;;;4.28;3.22;;;8.70;99.90;;;;;;5076585;28;20421;-81
2022/10/11 03:30:19;;;;;;;6.40;3.40;;;8.70;99.90;;;;;;5089142;27;20413;-81
2022/10/11 03:32:59;;;;;;;5.47;3.28;;;8.60;99.90;;;;;;5073314;27;20402;-81
2022/10/11 03:35:39;;;;;;;10.65;3.65;;;8.60;99.90;;;;;;5107776;27;20957;-81
2022/10/11 03:38:22;;;;;;;7.70;3.38;;;8.60;99.90;;;;;;5115285;27;20395;-81
2022/10/11 03:41:02;;;;;;;3.80;3.50;;;8.60;99.90;;;;;;5081621;27;20424;-81
2022/10/11 03:43:42;;;;;;;7.05;4.00;;;8.50;99.90;;;;;;5109586;27;20938;-81
2022/10/11 03:46:22;;;;;;;5.70;3.83;;;8.50;99.90;;;;;;5107674;27;20408;-80
2022/10/11 03:49:05;;;;;;;7.57;4.00;;;8.40;99.90;;;;;;5129447;27;20386;-81
2022/10/11 03:51:46;;;;;;;9.68;4.18;;;8.40;99.90;;;;;;5130997;27;20924;-81
2022/10/11 03:54:25;;;;;;;6.13;4.78;;;8.40;99.90;;;;;;5103954;27;1375852;-81
2022/10/11 03:57:06;;;;;;;8.98;3.50;;;8.30;99.90;;;;;;5089775;27;20388;-80
2022/10/11 03:59:44;;;;;;;5.50;4.05;;;8.30;99.90;;;;;;5096245;27;1281638;-81
2022/10/11 04:02:23;;;;;;;7.90;3.63;;;8.30;99.90;;;;;;5131457;27;20397;-83
2022/10/11 04:05:04;;;;;;;8.77;3.45;;;8.30;99.90;;;;;;5089567;27;1314668;-82
2022/10/11 04:07:43;;;;;;;6.93;3.85;;;8.30;99.90;;;;;;5096664;27;1275513;-81
2022/10/11 04:10:26;;;;;;;9.02;4.80;;;8.30;99.90;;;;;;5168761;27;20470;-83
2022/10/11 04:13:06;;;;;;;5.72;4.50;;;8.30;99.90;;;;;;5128463;27;20762;-81
2022/10/11 04:15:48;;;;;;;8.52;4.55;;;8.30;99.90;;;;;;5089617;27;20397;-80
2022/10/11 04:18:32;;;;;;;9.65;5.15;;;8.20;99.90;;;;;;5032121;27;2197513;-82
2022/10/11 04:21:15;;;;;;;6.35;5.68;;;8.30;99.90;;;;;;5193289;27;20387;-82
2022/10/11 04:23:55;;;;;;;8.95;5.35;;;8.30;99.90;;;;;;5084548;27;1438889;-83
2022/10/11 04:26:36;;;;;;;7.20;5.85;;;8.30;99.90;;;;;;5083251;27;20425;-82
2022/10/11 04:29:15;;;;;;;9.38;4.43;;;8.30;99.90;;;;;;5074786;27;1533776;-79
2022/10/11 04:31:54;;;;;;;8.55;4.65;;;8.30;99.90;;;;;;5109505;27;20411;-80
2022/10/11 04:34:34;;;;;;;5.35;4.60;;;8.30;99.90;;;;;;5150509;27;20378;-77
2022/10/11 04:37:13;;;;;;;7.97;4.28;;;8.30;99.90;;;;;;5102369;27;1378320;-82
2022/10/11 04:39:55;;;;;;;9.30;3.85;;;8.30;99.90;;;;;;5112437;27;20430;-81
2022/10/11 04:42:39;;;;;;;6.18;4.43;;;8.30;99.90;;;;;;5081982;27;20424;-83
2022/10/11 04:45:35;;;;;;;7.22;4.32;;;8.30;99.90;;;;;;5119785;27;20489;-85
2022/10/11 04:48:15;;;;;;;8.20;4.95;;;8.30;99.90;;;;;;5086184;27;1530533;-83
2022/10/11 04:51:01;;;;;;;7.70;4.93;;;8.30;99.90;;;;;;5094760;27;1484708;-83
2022/10/11 04:58:00;;;;;;;14.25;5.32;;;8.30;99.90;;;;;;4981100;27;4529447;-80
2022/10/11 05:00:44;;;;;;;8.55;5.43;;;8.30;99.90;;;;;;5108944;27;20408;-83
2022/10/11 05:03:30;;;;;;;7.38;5.65;;;8.30;99.90;;;;;;5065107;27;1878791;-80
2022/10/11 05:06:11;;;;;;;8.65;5.25;;;8.30;99.90;;;;;;5099019;27;1363471;-82
2022/10/11 05:08:52;;;;;;;5.68;4.18;;;8.30;99.90;;;;;;5086527;27;20416;-81
2022/10/11 05:11:31;;;;;;;9.25;4.07;;;8.20;99.90;;;;;;5083450;27;1337777;-81
2022/10/11 05:14:12;;;;;;;5.75;3.70;;;8.20;99.90;;;;;;5098357;27;20404;-81
2022/10/11 05:16:55;;;;;;;7.10;4.05;;;8.30;99.90;;;;;;5124674;27;20419;-80
2022/10/11 05:19:35;;;;;;;5.22;4.00;;;8.20;99.90;;;;;;5121393;27;20408;-79
2022/10/11 05:22:18;;;;;;;4.85;3.55;;;8.30;99.90;;;;;;5107715;27;20388;-78
2022/10/11 05:24:58;;;;;;;6.05;3.35;;;8.30;99.90;;;;;;5149975;27;20796;-78
2022/10/11 05:27:39;;;;;;;7.75;3.60;;;8.30;99.90;;;;;;5080774;28;20411;-78
2022/10/11 05:30:20;;;;;;;5.32;3.05;;;8.40;99.90;;;;;;5097896;27;20401;-77
2022/10/11 05:33:01;;;;;;;6.57;3.47;;;8.30;99.90;;;;;;5080447;27;1640333;-79
2022/10/11 05:35:40;;;;;;;5.22;3.65;;;8.30;99.90;;;;;;5127122;27;20387;-77
2022/10/11 05:38:23;;;;;;;3.42;3.13;;;8.30;99.90;;;;;;5102057;27;20432;-78
2022/10/11 05:41:05;;;;;;;5.97;3.78;;;8.30;99.90;;;;;;5128557;27;20386;-79
2022/10/11 05:43:46;;;;;;;6.70;3.10;;;8.30;99.90;;;;;;5113647;27;20440;-78
2022/10/11 05:46:26;;;;;;;7.30;3.92;;;8.30;99.90;;;;;;5096177;27;20417;-80
2022/10/11 05:49:06;;;;;;;6.13;3.42;;;8.40;99.90;;;;;;5109245;27;20404;-78
2022/10/11 05:51:44;;;;;;;7.57;3.15;;;8.30;99.90;;;;;;5103349;27;1330146;-78
2022/10/11 05:54:29;;;;;;;5.63;3.85;;;8.30;99.90;;;;;;5149581;27;20393;-78
2022/10/11 05:57:08;;;;;;;9.60;3.47;;;8.30;99.90;;;;;;5098286;27;1253825;-78
2022/10/11 05:59:48;;;;;;;4.22;3.22;;;8.20;99.90;;;;;;5128099;27;20472;-78
2022/10/11 06:02:28;;;;;;;4.35;3.00;;;8.20;99.90;;;;;;5104136;27;20412;-79
2022/10/11 06:05:09;;;;;;;6.25;3.10;;;8.30;99.90;;;;;;5105406;27;20431;-78
2022/10/11 06:07:50;;;;;;;4.20;3.03;;;8.40;99.90;;;;;;5079028;27;20862;-81
2022/10/11 06:10:30;;;;;;;4.55;3.20;;;8.40;99.90;;;;;;5087001;27;1388898;-77
2022/10/11 06:13:11;;;;;;;6.13;3.05;;;8.40;99.90;;;;;;5079435;28;21231;-80
2022/10/11 06:16:15;;;;;;;4.13;2.70;;;8.40;99.90;;;;;;5080654;27;20508;-81
2022/10/11 06:19:15;;;;;;;2.90;2.60;;;8.40;99.90;;;;;;5201474;27;20760;-79
2022/10/11 06:22:14;;;;;;;4.68;2.80;;;8.60;99.90;;;;;;5153084;27;20408;-81
2022/10/11 06:25:21;;;;;;;4.22;2.95;;;8.60;99.90;;;;;;5125512;27;20411;-80
2022/10/11 06:28:01;;;;;;;3.33;3.03;;;8.70;99.90;;;;;;4176871;27;27003764;-80
2022/10/11 06:30:58;;;;;;;3.83;2.80;;;8.70;99.90;;;;;;5087931;27;20411;-81
2022/10/11 06:33:39;;;;;;;3.67;2.63;;;8.60;99.90;;;;;;4598858;27;15052149;-81
2022/10/11 06:36:18;;;;;;;4.82;2.30;;;8.60;99.90;;;;;;4398395;27;20946712;-80
2022/10/11 06:39:13;;;;;;;6.70;2.90;;;8.70;99.90;;;;;;5108317;27;20425;-83
2022/10/11 06:42:16;;;;;;;5.78;3.03;;;8.80;99.90;;;;;;5146888;27;20420;-81
2022/10/11 06:45:10;;;;;;;4.43;2.78;;;8.90;99.90;;;;;;5091108;27;20412;-85
2022/10/11 06:47:50;;;;;;;5.68;3.00;;;9.00;99.90;;;;;;4485855;27;18606649;-83
2022/10/11 06:50:31;;;;;;;7.40;2.60;;;9.10;99.90;;;;;;4187021;27;27151137;-83
2022/10/11 06:53:43;;;;;;;6.05;2.67;;;9.20;99.90;;;;;;5129582;27;20399;-82
2022/10/11 06:56:39;;;;;;;2.47;2.28;;;9.20;99.90;;;;;;5090185;27;20414;-82
2022/10/11 06:59:19;;;;;;;5.43;2.08;;;9.20;99.90;;;;;;4483850;27;18637047;-81
2022/10/11 07:02:18;;;;;;;3.30;1.90;;;9.30;99.90;;;;;;5107815;27;20400;-83
2022/10/11 07:05:36;;;;;;;6.93;2.70;;;9.50;99.90;;;;;;5127670;27;20464;-82
2022/10/11 07:08:38;;;;;;;6.05;2.30;;;9.50;99.90;;;;;;5100865;27;20416;-81
2022/10/11 07:11:30;;;;;;;2.80;2.08;;;9.70;99.90;;;;;;5090395;27;20407;-84
2022/10/11 07:14:43;;;;;;;4.55;1.98;;;9.90;99.90;;;;;;5128594;27;20388;-80
2022/10/11 07:17:37;;;;;;;6.60;2.40;;;9.90;99.90;;;;;;5095311;27;20874;-83
2022/10/11 07:20:16;;;;;;;6.40;2.00;;;10.10;99.90;;;;;;4609744;27;15080038;-83
2022/10/11 07:23:16;;;;;;;4.70;1.70;;;10.20;99.90;;;;;;5069092;27;20405;-82
2022/10/11 07:26:18;;;;;;;7.03;1.98;;;10.20;99.90;;;;;;5086955;27;20415;-85
2022/10/11 07:28:56;;;;;;;5.22;1.90;;;10.20;99.90;;;;;;4591980;27;15059505;-82
2022/10/11 07:32:07;;;;;;;4.00;1.95;;;10.30;99.90;;;;;;5119567;27;20439;-82
2022/10/11 07:35:19;;;;;;;2.58;1.75;;;10.30;99.90;;;;;;5154763;27;20415;-81
2022/10/11 07:37:58;;;;;;;6.93;2.13;;;10.40;99.90;;;;;;4468019;27;18736709;-82
2022/10/11 07:40:44;;;;;;;4.97;2.07;;;10.40;99.90;;;;;;4608795;27;15082965;-83
2022/10/11 07:43:38;;;;;;;5.82;2.47;;;10.60;99.90;;;;;;5085048;27;20938;-82
2022/10/11 07:46:38;;;;;;;2.00;1.80;;;10.80;99.90;;;;;;5082616;27;20411;-82
2022/10/11 07:49:17;;;;;;;4.50;2.15;;;11.60;99.90;;;;;;4464788;27;17886849;-84
2022/10/11 07:52:22;;;;;;;4.03;2.53;;;12.40;99.90;;;;;;5128859;27;20539;-83
2022/10/11 07:55:26;;;;;;;2.67;1.85;;;14.10;99.90;;;;;;5123771;27;20462;-82
2022/10/11 07:58:19;;;;;;;6.88;2.00;;;15.60;99.90;;;;;;5106173;27;20874;-82
2022/10/11 08:01:13;;;;;;;5.00;2.08;;;16.30;99.90;;;;;;5103091;27;20491;-82
2022/10/11 08:04:11;;;;;;;6.13;2.17;;;17.30;99.90;;;;;;5104537;27;20436;-80
2022/10/11 08:07:08;;;;;;;3.60;1.92;;;18.20;99.90;;;;;;5102934;27;20517;-82
2022/10/11 08:09:46;;;;;;;1.70;1.60;;;19.10;99.90;;;;;;4608360;27;15174182;-82
2022/10/11 08:12:47;;;;;;;6.43;2.03;;;19.50;98.50;;;;;;5099153;27;20445;-83
2022/10/11 08:15:52;;;;;;;4.43;1.85;;;19.70;96.90;;;;;;5127755;27;20407;-81
2022/10/11 08:18:31;;;;;;;6.80;2.05;;;19.90;94.50;;;;;;4049074;27;30074945;-82
2022/10/11 08:21:26;;;;;;;3.70;2.03;;;20.10;94.10;;;;;;5108166;27;20402;-82
2022/10/11 08:24:06;;;;;;;1.83;1.70;;;20.60;91.30;;;;;;4139950;27;27030069;-83
2022/10/11 08:27:03;;;;;;;2.20;2.00;;;21.10;89.00;;;;;;5121449;27;20396;-83
2022/10/11 08:29:41;;;;;;;2.90;1.92;;;21.10;87.70;;;;;;4370263;27;20818415;-84
2022/10/11 08:32:37;;;;;;;5.03;1.60;;;21.60;84.40;;;;;;5110053;27;20426;-81
2022/10/11 08:35:32;;;;;;;5.00;2.20;;;21.50;81.30;;;;;;5107624;27;20734;-85
2022/10/11 08:38:33;;;;;;;3.92;1.60;;;21.30;81.90;;;;;;5086857;27;20403;-82
2022/10/11 08:41:39;;;;;;;3.75;1.90;;;21.10;80.50;;;;;;5082628;27;20962;-81
2022/10/11 08:44:42;;;;;;;3.60;2.10;;;20.50;83.00;;;;;;5199279;27;20495;-80
2022/10/11 08:47:26;;;;;;;2.47;2.00;;;20.70;82.10;;;;;;4352435;27;21003948;-80
2022/10/11 08:49:55;;;;;;;3.22;1.80;;;21.30;79.90;;;;;;5105137;28;20040;-80
2022/10/11 08:52:28;;;;;;;5.50;1.70;;;21.50;78.50;;;;;;5112517;28;20057;-79
2022/10/11 08:54:59;;;;;;;4.35;1.80;;;21.80;76.30;;;;;;5113110;27;20104;-81
2022/10/11 08:57:31;;;;;;;2.67;1.77;;;21.80;76.30;;;;;;5092356;28;20568;-80
2022/10/11 09:00:01;;;;;;;3.00;1.83;;;21.80;75.50;;;;;;5107720;28;20065;-81
2022/10/11 09:02:40;;;;;;;2.47;1.58;;;22.10;74.20;;;;;;5115107;28;20046;-80
2022/10/11 09:05:14;;;;;;;3.83;2.00;;;21.80;72.40;;;;;;5105376;28;20201;-81
2022/10/11 09:07:51;;;;;;;5.45;1.55;;;21.30;75.20;;;;;;5125883;28;20043;-80
2022/10/11 09:10:43;;;;;;;3.38;1.33;;;20.90;74.70;;;;;;5111943;28;20074;-84
2022/10/11 09:13:33;;;;;;;4.43;1.30;;;20.10;76.50;;;;;;5104248;28;20059;-80
2022/10/11 09:16:18;;;;;;;4.72;1.40;;;18.40;79.80;;;;;;5121346;28;20104;-80
2022/10/11 09:19:12;;;;;;;5.78;1.38;;;17.60;84.80;;;;;;5104729;28;20043;-80
2022/10/11 09:21:49;;;;;;;3.08;1.30;;;17.00;86.00;;;;;;5107669;28;20077;-80
2022/10/11 09:24:46;;;;;;;4.40;1.33;;;16.00;90.10;;;;;;5121458;28;20465;-81
2022/10/11 09:27:21;;;;;;;4.05;1.67;;;15.40;91.80;;;;;;5108692;27;20051;-82
2022/10/11 09:29:59;;;;;;;2.00;1.50;;;14.80;92.90;;;;;;5115275;28;20073;-82
2022/10/11 09:32:32;;;;;;;6.13;1.55;;;14.30;94.40;;;;;;5110960;28;20058;-81
2022/10/11 09:35:12;;;;;;;9.43;1.85;;;13.80;96.00;;;;;;5120191;27;20056;-81
2022/10/11 09:37:49;;;;;;;1.90;1.30;;;13.50;97.90;;;;;;5118675;28;20046;-81
2022/10/11 09:40:37;;;;;;;4.47;1.45;;;13.20;99.10;;;;;;5105895;28;20463;-80
2022/10/11 09:43:05;;;;;;;2.55;1.20;;;13.20;99.90;;;;;;5105485;28;20071;-80
2022/10/11 09:45:33;;;;;;;3.25;1.85;;;13.20;99.90;;;;;;5121736;27;20048;-80
2022/10/11 09:48:02;;;;;;;4.60;2.03;;;13.30;99.90;;;;;;5107777;28;20450;-81
2022/10/11 09:50:33;;;;;;;5.15;1.85;;;13.50;99.90;;;;;;5105372;28;20044;-80
2022/10/11 09:53:03;;;;;;;6.15;1.80;;;14.00;99.90;;;;;;5118296;28;20047;-81
2022/10/11 09:55:35;;;;;;;4.35;1.73;;;14.50;99.90;;;;;;5102364;28;20040;-80
2022/10/11 09:58:05;;;;;;;3.97;1.37;;;14.70;99.90;;;;;;5099529;28;20048;-80
2022/10/11 10:00:33;;;;;;;2.65;1.77;;;15.10;99.60;;;;;;5089194;28;20566;-79
2022/10/11 10:03:04;;;;;;;2.05;1.50;;;15.40;99.00;;;;;;5099995;28;20072;-80
2022/10/11 10:05:35;;;;;;;1.67;1.40;;;16.00;97.80;;;;;;5090364;28;20514;-79
2022/10/11 10:08:24;;;;;;;5.13;1.70;;;17.40;94.90;;;;;;5092145;28;20048;-79
2022/10/11 10:11:01;;;;;;;2.00;1.00;;;18.60;91.80;;;;;;5101680;28;20548;-80
2022/10/11 10:13:39;;;;;;;2.83;1.35;;;19.70;85.40;;;;;;5095835;28;20144;-79
2022/10/11 10:16:10;;;;;;;2.67;1.23;;;19.40;82.60;;;;;;5091610;28;20047;-79
2022/10/11 10:18:44;;;;;;;4.78;1.17;;;18.50;84.40;;;;;;5097705;28;20058;-79
2022/10/11 10:21:15;;;;;;;3.85;1.23;;;17.70;86.80;;;;;;5090826;28;20560;-80
2022/10/11 10:23:44;;;;;;;2.47;1.00;;;16.80;89.70;;;;;;5093185;28;20815;-81
2022/10/11 10:26:16;;;;;;;6.63;1.20;;;16.10;91.20;;;;;;5092763;28;20424;-81
2022/10/11 10:29:05;;;;;;;2.30;1.30;;;15.70;92.50;;;;;;5091176;28;20047;-82
2022/10/11 10:31:38;;;;;;;2.65;1.48;;;15.60;93.00;;;;;;5102153;28;20325;-81
2022/10/11 10:34:14;;;;;;;4.00;1.33;;;15.50;93.30;;;;;;5098962;28;20051;-79
2022/10/11 10:36:50;;;;;;;1.88;1.20;;;15.80;92.80;;;;;;5090995;28;20048;-80
2022/10/11 10:39:28;;;;;;;2.70;1.20;;;16.50;91.80;;;;;;5114414;27;20036;-81
2022/10/11 10:41:56;;;;;;;2.05;1.17;;;16.60;91.30;;;;;;5092424;28;20078;-81
2022/10/11 10:44:26;;;;;;;1.65;0.85;;;17.10;90.50;;;;;;5099908;28;20515;-82
2022/10/11 10:47:09;;;;;;;4.35;1.17;;;17.40;89.50;;;;;;5109337;28;20039;-78
2022/10/11 10:49:44;;;;;;;2.25;0.70;;;17.40;88.40;;;;;;5093385;28;20046;-77
2022/10/11 10:52:42;;;;;;;3.13;1.10;;;17.40;87.30;;;;;;5090167;28;20516;-77
2022/10/11 10:55:22;;;;;;;5.15;0.90;;;16.90;88.60;;;;;;5073786;28;20044;-77
2022/10/11 10:58:06;;;;;;;3.70;1.27;;;16.40;90.40;;;;;;5071646;28;20419;-78
2022/10/11 11:00:42;;;;;;;1.25;1.15;;;16.40;90.30;;;;;;5089261;28;20427;-76
2022/10/11 11:03:23;;;;;;;1.40;1.30;;;17.10;89.90;;;;;;5091062;28;20062;-79
2022/10/11 11:06:00;;;;;;;4.45;1.20;;;17.50;87.50;;;;;;5091550;28;20143;-77
2022/10/11 11:08:51;;;;;;;4.10;1.13;;;18.10;85.20;;;;;;5087964;28;20090;-77
2022/10/11 11:11:48;;;;;;;4.32;1.35;;;18.50;84.20;;;;;;5094299;28;20142;-80
2022/10/11 11:14:35;;;;;;;1.98;1.00;;;18.70;81.60;;;;;;5090126;28;20388;-81
2022/10/11 11:17:13;;;;;;;1.33;1.20;;;18.30;82.00;;;;;;5091738;28;20042;-77
2022/10/11 11:19:59;;;;;;;6.50;1.58;;;17.80;83.90;;;;;;5087040;28;20411;-79
2022/10/11 11:22:41;;;;;;;4.63;1.23;;;18.00;84.30;;;;;;5090150;28;20070;-83
2022/10/11 11:25:25;;;;;;;2.17;0.98;;;18.70;81.50;;;;;;5087841;28;20070;-81
2022/10/11 11:28:10;;;;;;;2.15;1.13;;;19.70;77.50;;;;;;5088385;28;20051;-79
2022/10/11 11:30:50;;;;;;;1.55;1.45;;;20.40;74.80;;;;;;5096909;28;20082;-81
2022/10/11 11:33:28;;;;;;;1.85;1.20;;;20.50;72.60;;;;;;5087771;28;20245;-79
2022/10/11 11:36:02;;;;;;;2.83;1.20;;;19.70;72.60;;;;;;5088001;28;20055;-78
2022/10/11 11:38:44;;;;;;;4.28;1.00;;;18.10;77.00;;;;;;5093998;28;20047;-79
2022/10/11 11:41:18;;;;;;;4.28;1.00;;;16.90;80.70;;;;;;5087915;28;20052;-80
2022/10/11 11:43:58;;;;;;;2.47;0.82;;;15.90;84.50;;;;;;5106370;28;20054;-80
2022/10/11 11:46:30;;;;;;;5.55;1.83;;;15.20;87.40;;;;;;5091641;28;20055;-81
2022/10/11 11:49:03;;;;;;;3.28;1.80;;;14.80;89.90;;;;;;5094664;28;20051;-80
2022/10/11 11:51:36;;;;;;;2.35;1.00;;;14.50;90.70;;;;;;5106997;28;20066;-80
2022/10/11 11:54:21;;;;;;;3.33;1.35;;;14.40;90.90;;;;;;5089456;28;20067;-80
2022/10/11 11:57:00;;;;;;;1.70;1.30;;;14.30;91.40;;;;;;5105961;28;20043;-82
2022/10/11 11:59:46;;;;;;;6.00;1.30;;;14.20;91.70;;;;;;5091353;28;20130;-81
2022/10/11 12:02:44;;;;;;;6.40;1.35;;;14.20;92.00;;;;;;5093410;28;20052;-78
2022/10/11 12:05:17;;;;;;;3.03;0.95;;;14.10;92.30;;;;;;5091547;28;20416;-79
2022/10/11 12:07:51;;;;;;;;;;;14.00;92.10;;;;;;5089457;28;20503;-79
2022/10/11 12:10:31;;;;;;;2.88;1.27;;;13.90;92.70;;;;;;5089071;28;19924;-81
2022/10/11 12:13:17;;;;;;;3.33;1.20;;;13.90;92.60;;;;;;5090262;28;20051;-78
2022/10/11 12:16:11;;;;;;;1.38;1.00;;;13.90;93.10;;;;;;5095475;28;20511;-78
2022/10/11 12:18:52;;;;;;;4.05;0.98;;;13.90;92.90;;;;;;5088382;28;20060;-79
2022/10/11 12:21:27;;;;;;;3.20;0.95;;;13.90;92.30;;;;;;5090626;28;20062;-79
2022/10/11 12:23:56;;;;;;;3.30;1.20;;;13.90;91.70;;;;;;5092074;28;20546;-79
2022/10/11 12:26:43;;;;;;;1.70;0.90;;;13.90;92.10;;;;;;5089668;28;20536;-82
2022/10/11 12:29:46;;;;;;;3.03;1.60;;;13.90;91.60;;;;;;5088187;28;20056;-81
2022/10/11 12:32:49;;;;;;;2.60;1.23;;;13.90;91.70;;;;;;5089956;28;20054;-79
2022/10/11 12:35:58;;;;;;;1.85;1.20;;;13.90;91.70;;;;;;5089250;28;20479;-80
2022/10/11 12:38:29;;;;;;;3.92;1.52;;;13.90;91.70;;;;;;5086704;28;20051;-83
2022/10/11 12:40:59;;;;;;;4.07;1.25;;;13.90;91.30;;;;;;5088779;28;20040;-79
2022/10/11 12:43:38;;;;;;;8.18;1.08;;;13.90;90.40;;;;;;5088754;28;20134;-84
2022/10/11 12:46:44;;;;;;;5.78;1.20;;;13.90;90.20;;;;;;5086199;28;20093;-76
2022/10/11 12:49:29;;;;;;;6.95;1.33;;;13.90;90.70;;;;;;5086970;28;20056;-81
2022/10/11 12:52:01;;;;;;;7.05;1.10;;;13.80;90.10;;;;;;5091360;28;20761;-79
2022/10/11 12:55:03;;;;;;;3.00;1.00;;;13.90;89.60;;;;;;5087827;28;20141;-77
2022/10/11 12:58:06;;;;;;;2.65;1.00;;;13.90;89.70;;;;;;5050063;28;20482;-78
2022/10/11 13:00:45;;;;;;;1.00;1.00;;;13.90;89.70;;;;;;5087936;28;20071;-82
2022/10/11 13:03:34;;;;;;;4.75;0.90;;;13.90;89.60;;;;;;5087781;28;20079;-79
2022/10/11 13:06:14;;;;;;;3.80;1.15;;;13.80;89.90;;;;;;5086298;28;20056;-81
2022/10/11 13:08:49;;;;;;;5.15;1.42;;;13.80;90.10;;;;;;5089968;28;20504;-81
2022/10/11 13:11:22;;;;;;;3.47;0.82;;;13.70;90.30;;;;;;5089215;28;20102;-79
2022/10/11 13:13:54;;;;;;;2.15;0.80;;;13.70;90.40;;;;;;5086065;28;20360;-78
2022/10/11 13:16:25;;;;;;;3.00;1.33;;;13.70;90.50;;;;;;5092321;28;20651;-78
2022/10/11 13:19:00;;;;;;;3.70;0.98;;;13.70;90.60;;;;;;5087499;28;20050;-77
2022/10/11 13:21:34;;;;;;;1.95;1.10;;;13.70;90.70;;;;;;5088340;28;20094;-77
2022/10/11 13:24:07;;;;;;;2.08;1.02;;;13.70;90.90;;;;;;5095770;28;20101;-77
2022/10/11 13:26:34;;;;;;;6.18;1.20;;;13.60;91.10;;;;;;5085903;28;21149;-76
2022/10/11 13:29:02;;;;;;;5.00;1.23;;;13.70;91.30;;;;;;5085172;28;20155;-76
2022/10/11 13:31:29;;;;;;;1.65;1.00;;;13.60;91.20;;;;;;5078752;28;20055;-76
2022/10/11 13:33:59;;;;;;;3.92;1.20;;;13.60;91.60;;;;;;5090872;28;20389;-73
2022/10/11 13:36:27;;;;;;;3.22;1.20;;;13.60;92.00;;;;;;5094438;28;20493;-74
2022/10/11 13:38:58;;;;;;;6.55;1.30;;;13.60;92.50;;;;;;5090138;28;20044;-76
2022/10/11 13:41:29;;;;;;;4.88;1.08;;;13.60;92.80;;;;;;5090649;28;20640;-81
2022/10/11 13:43:58;;;;;;;6.85;1.77;;;13.60;93.20;;;;;;5091770;28;20052;-80
2022/10/11 13:46:28;;;;;;;9.30;1.70;;;13.60;93.60;;;;;;5089834;28;20285;-79
2022/10/11 13:49:04;;;;;;;9.15;1.85;;;13.60;94.10;;;;;;5094575;28;20039;-79
2022/10/11 13:51:37;;;;;;;13.73;6.18;;;13.50;94.80;;;;;;5094469;28;20055;-80
2022/10/11 13:54:05;;;;;;;;;;;13.50;94.80;;;;;;5089687;28;20048;-78
2022/10/11 13:56:48;;;;;;;8.02;1.50;;;13.40;95.70;;;;;;5092740;28;19935;-81
2022/10/11 13:59:20;;;;;;;2.92;0.90;;;13.30;96.20;;;;;;5093106;28;20044;-81
2022/10/11 14:01:48;;;;;;;3.53;1.55;;;13.20;96.50;;;;;;5101727;28;20109;-82
2022/10/11 14:04:17;;;;;;;8.75;1.30;;;13.20;96.80;;;;;;5105353;28;20070;-81
2022/10/11 14:06:48;;;;;;;5.75;1.65;;;13.20;97.10;;;;;;5101508;28;20051;-81
2022/10/11 14:09:21;;;;;;;2.75;0.95;;;13.10;97.80;;;;;;5092974;28;20140;-84